sensor_id;sensor_type;location;lat;lon;timestamp;temperature;humidity
45849;DHT22;31567;54.600;9.842;2022-07-18T00:01:45;17.70;96.80
45849;DHT22;31567;54.600;9.842;2022-07-18T00:05:25;17.60;96.90
45849;DHT22;31567;54.600;9.842;2022-07-18T00:09:05;17.70;97.00
45849;DHT22;31567;54.600;9.842;2022-07-18T00:12:44;17.60;97.00
45849;DHT22;31567;54.600;9.842;2022-07-18T00:16:24;17.60;97.00
45849;DHT22;31567;54.600;9.842;2022-07-18T00:20:06;17.60;96.90
45849;DHT22;31567;54.600;9.842;2022-07-18T00:23:46;17.60;97.00
45849;DHT22;31567;54.600;9.842;2022-07-18T00:27:26;17.60;97.00
45849;DHT22;31567;54.600;9.842;2022-07-18T00:31:06;17.60;96.90
45849;DHT22;31567;54.600;9.842;2022-07-18T00:34:45;17.60;96.80
45849;DHT22;31567;54.600;9.842;2022-07-18T00:38:25;17.50;96.70
45849;DHT22;31567;54.600;9.842;2022-07-18T00:42:04;17.50;96.70
45849;DHT22;31567;54.600;9.842;2022-07-18T00:45:48;17.40;96.70
45849;DHT22;31567;54.600;9.842;2022-07-18T00:49:29;17.40;96.80
45849;DHT22;31567;54.600;9.842;2022-07-18T00:53:09;17.50;97.00
45849;DHT22;31567;54.600;9.842;2022-07-18T00:56:50;17.40;97.00
45849;DHT22;31567;54.600;9.842;2022-07-18T01:00:30;17.50;97.10
45849;DHT22;31567;54.600;9.842;2022-07-18T01:04:28;17.50;97.10
45849;DHT22;31567;54.600;9.842;2022-07-18T01:08:08;17.50;97.00
45849;DHT22;31567;54.600;9.842;2022-07-18T01:11:48;17.50;97.10
45849;DHT22;31567;54.600;9.842;2022-07-18T01:15:27;17.50;97.10
45849;DHT22;31567;54.600;9.842;2022-07-18T01:19:07;17.50;97.10
45849;DHT22;31567;54.600;9.842;2022-07-18T01:22:48;17.50;97.20
45849;DHT22;31567;54.600;9.842;2022-07-18T01:26:28;17.50;97.20
45849;DHT22;31567;54.600;9.842;2022-07-18T01:30:08;17.50;97.20
45849;DHT22;31567;54.600;9.842;2022-07-18T01:33:48;17.60;97.20
45849;DHT22;31567;54.600;9.842;2022-07-18T01:37:27;17.50;97.10
45849;DHT22;31567;54.600;9.842;2022-07-18T01:41:07;17.50;97.10
45849;DHT22;31567;54.600;9.842;2022-07-18T01:44:46;17.60;97.10
45849;DHT22;31567;54.600;9.842;2022-07-18T01:48:26;17.60;97.00
45849;DHT22;31567;54.600;9.842;2022-07-18T01:52:07;17.60;96.90
45849;DHT22;31567;54.600;9.842;2022-07-18T01:55:46;17.50;96.70
45849;DHT22;31567;54.600;9.842;2022-07-18T01:59:27;17.50;96.60
45849;DHT22;31567;54.600;9.842;2022-07-18T02:03:06;17.50;96.60
45849;DHT22;31567;54.600;9.842;2022-07-18T02:06:46;17.40;96.50
45849;DHT22;31567;54.600;9.842;2022-07-18T02:10:26;17.50;96.50
45849;DHT22;31567;54.600;9.842;2022-07-18T02:14:05;17.40;96.40
45849;DHT22;31567;54.600;9.842;2022-07-18T02:17:45;17.40;96.30
45849;DHT22;31567;54.600;9.842;2022-07-18T02:21:24;17.40;96.30
45849;DHT22;31567;54.600;9.842;2022-07-18T02:25:05;17.40;96.30
45849;DHT22;31567;54.600;9.842;2022-07-18T02:28:45;17.40;96.30
45849;DHT22;31567;54.600;9.842;2022-07-18T02:32:24;17.40;96.30
45849;DHT22;31567;54.600;9.842;2022-07-18T02:36:04;17.40;96.30
45849;DHT22;31567;54.600;9.842;2022-07-18T02:39:44;17.40;96.20
45849;DHT22;31567;54.600;9.842;2022-07-18T02:43:23;17.40;96.20
45849;DHT22;31567;54.600;9.842;2022-07-18T02:47:03;17.40;96.20
45849;DHT22;31567;54.600;9.842;2022-07-18T02:50:43;17.40;96.20
45849;DHT22;31567;54.600;9.842;2022-07-18T02:54:23;17.40;96.20
45849;DHT22;31567;54.600;9.842;2022-07-18T02:58:03;17.40;96.20
45849;DHT22;31567;54.600;9.842;2022-07-18T03:01:43;17.30;96.20
45849;DHT22;31567;54.600;9.842;2022-07-18T03:05:22;17.40;96.20
45849;DHT22;31567;54.600;9.842;2022-07-18T03:09:02;17.40;96.30
45849;DHT22;31567;54.600;9.842;2022-07-18T03:12:42;17.40;96.40
45849;DHT22;31567;54.600;9.842;2022-07-18T03:16:22;17.40;96.40
45849;DHT22;31567;54.600;9.842;2022-07-18T03:20:02;17.40;96.40
45849;DHT22;31567;54.600;9.842;2022-07-18T03:23:42;17.40;96.50
45849;DHT22;31567;54.600;9.842;2022-07-18T03:27:21;17.40;96.60
45849;DHT22;31567;54.600;9.842;2022-07-18T03:31:01;17.40;96.70
45849;DHT22;31567;54.600;9.842;2022-07-18T03:34:41;17.40;96.60
45849;DHT22;31567;54.600;9.842;2022-07-18T03:38:20;17.40;96.50
45849;DHT22;31567;54.600;9.842;2022-07-18T03:42:00;17.40;96.40
45849;DHT22;31567;54.600;9.842;2022-07-18T03:45:39;17.40;96.30
45849;DHT22;31567;54.600;9.842;2022-07-18T03:49:19;17.30;96.30
45849;DHT22;31567;54.600;9.842;2022-07-18T03:52:59;17.30;96.20
45849;DHT22;31567;54.600;9.842;2022-07-18T03:56:39;17.30;96.20
45849;DHT22;31567;54.600;9.842;2022-07-18T04:00:19;17.30;96.10
45849;DHT22;31567;54.600;9.842;2022-07-18T04:03:58;17.30;96.00
45849;DHT22;31567;54.600;9.842;2022-07-18T04:07:39;17.30;95.90
45849;DHT22;31567;54.600;9.842;2022-07-18T04:11:18;17.30;95.90
45849;DHT22;31567;54.600;9.842;2022-07-18T04:15:03;17.40;96.00
45849;DHT22;31567;54.600;9.842;2022-07-18T04:18:43;17.40;96.00
45849;DHT22;31567;54.600;9.842;2022-07-18T04:22:22;17.40;95.90
45849;DHT22;31567;54.600;9.842;2022-07-18T04:26:02;17.50;95.80
45849;DHT22;31567;54.600;9.842;2022-07-18T04:29:43;17.60;95.70
45849;DHT22;31567;54.600;9.842;2022-07-18T04:33:22;17.60;95.60
45849;DHT22;31567;54.600;9.842;2022-07-18T04:37:02;17.60;95.60
45849;DHT22;31567;54.600;9.842;2022-07-18T04:40:42;17.60;95.60
45849;DHT22;31567;54.600;9.842;2022-07-18T04:44:21;17.70;95.70
45849;DHT22;31567;54.600;9.842;2022-07-18T04:48:03;17.70;95.60
45849;DHT22;31567;54.600;9.842;2022-07-18T04:51:43;17.70;95.70
45849;DHT22;31567;54.600;9.842;2022-07-18T04:55:23;17.80;95.70
45849;DHT22;31567;54.600;9.842;2022-07-18T04:59:03;17.90;95.60
45849;DHT22;31567;54.600;9.842;2022-07-18T05:02:44;17.90;95.40
45849;DHT22;31567;54.600;9.842;2022-07-18T05:06:24;18.00;95.40
45849;DHT22;31567;54.600;9.842;2022-07-18T05:10:04;18.10;95.40
45849;DHT22;31567;54.600;9.842;2022-07-18T05:13:46;18.10;95.50
45849;DHT22;31567;54.600;9.842;2022-07-18T05:17:26;18.10;95.60
45849;DHT22;31567;54.600;9.842;2022-07-18T05:21:05;18.10;95.70
45849;DHT22;31567;54.600;9.842;2022-07-18T05:24:45;18.10;95.80
45849;DHT22;31567;54.600;9.842;2022-07-18T05:28:25;18.20;95.70
45849;DHT22;31567;54.600;9.842;2022-07-18T05:32:05;18.20;95.60
45849;DHT22;31567;54.600;9.842;2022-07-18T05:35:44;18.20;95.50
45849;DHT22;31567;54.600;9.842;2022-07-18T05:39:24;18.30;95.50
45849;DHT22;31567;54.600;9.842;2022-07-18T05:43:04;18.30;95.60
45849;DHT22;31567;54.600;9.842;2022-07-18T05:46:43;18.30;95.60
45849;DHT22;31567;54.600;9.842;2022-07-18T05:50:23;18.30;95.70
45849;DHT22;31567;54.600;9.842;2022-07-18T05:54:03;18.30;95.70
45849;DHT22;31567;54.600;9.842;2022-07-18T05:57:43;18.30;95.80
45849;DHT22;31567;54.600;9.842;2022-07-18T06:01:22;18.40;96.00
45849;DHT22;31567;54.600;9.842;2022-07-18T06:05:02;18.50;96.00
45849;DHT22;31567;54.600;9.842;2022-07-18T06:08:42;18.50;95.90
45849;DHT22;31567;54.600;9.842;2022-07-18T06:12:22;18.60;95.80
45849;DHT22;31567;54.600;9.842;2022-07-18T06:16:02;18.70;95.80
45849;DHT22;31567;54.600;9.842;2022-07-18T06:19:41;18.70;95.80
45849;DHT22;31567;54.600;9.842;2022-07-18T06:23:21;18.80;95.70
45849;DHT22;31567;54.600;9.842;2022-07-18T06:27:00;18.90;95.80
45849;DHT22;31567;54.600;9.842;2022-07-18T06:30:41;19.00;95.80
45849;DHT22;31567;54.600;9.842;2022-07-18T06:34:20;19.10;95.60
45849;DHT22;31567;54.600;9.842;2022-07-18T06:38:00;19.20;95.50
45849;DHT22;31567;54.600;9.842;2022-07-18T06:41:40;19.20;95.10
45849;DHT22;31567;54.600;9.842;2022-07-18T06:45:19;19.20;95.10
45849;DHT22;31567;54.600;9.842;2022-07-18T06:48:59;19.20;94.90
45849;DHT22;31567;54.600;9.842;2022-07-18T06:52:40;19.30;94.70
45849;DHT22;31567;54.600;9.842;2022-07-18T06:56:20;19.40;94.70
45849;DHT22;31567;54.600;9.842;2022-07-18T06:59:59;19.40;94.60
45849;DHT22;31567;54.600;9.842;2022-07-18T07:03:39;19.40;94.50
45849;DHT22;31567;54.600;9.842;2022-07-18T07:07:19;19.50;94.40
45849;DHT22;31567;54.600;9.842;2022-07-18T07:10:58;19.50;94.20
45849;DHT22;31567;54.600;9.842;2022-07-18T07:14:38;19.60;94.30
45849;DHT22;31567;54.600;9.842;2022-07-18T07:18:17;19.70;94.20
45849;DHT22;31567;54.600;9.842;2022-07-18T07:21:57;19.80;94.00
45849;DHT22;31567;54.600;9.842;2022-07-18T07:25:37;19.90;93.80
45849;DHT22;31567;54.600;9.842;2022-07-18T07:29:17;19.90;93.90
45849;DHT22;31567;54.600;9.842;2022-07-18T07:32:56;20.10;94.20
45849;DHT22;31567;54.600;9.842;2022-07-18T07:36:36;20.10;93.80
45849;DHT22;31567;54.600;9.842;2022-07-18T07:40:16;20.10;93.30
45849;DHT22;31567;54.600;9.842;2022-07-18T07:43:56;20.20;93.90
45849;DHT22;31567;54.600;9.842;2022-07-18T07:47:36;20.20;93.60
45849;DHT22;31567;54.600;9.842;2022-07-18T07:51:16;20.30;93.40
45849;DHT22;31567;54.600;9.842;2022-07-18T07:54:56;20.30;93.40
45849;DHT22;31567;54.600;9.842;2022-07-18T07:58:35;20.30;93.10
45849;DHT22;31567;54.600;9.842;2022-07-18T08:02:15;20.40;93.20
45849;DHT22;31567;54.600;9.842;2022-07-18T08:05:55;20.50;93.00
45849;DHT22;31567;54.600;9.842;2022-07-18T08:09:35;20.50;93.00
45849;DHT22;31567;54.600;9.842;2022-07-18T08:13:15;20.70;93.00
45849;DHT22;31567;54.600;9.842;2022-07-18T08:16:54;20.70;92.90
45849;DHT22;31567;54.600;9.842;2022-07-18T08:20:34;20.90;92.70
45849;DHT22;31567;54.600;9.842;2022-07-18T08:24:14;21.00;92.80
45849;DHT22;31567;54.600;9.842;2022-07-18T08:27:54;21.10;92.60
45849;DHT22;31567;54.600;9.842;2022-07-18T08:31:34;21.20;92.60
45849;DHT22;31567;54.600;9.842;2022-07-18T08:35:14;21.30;92.30
45849;DHT22;31567;54.600;9.842;2022-07-18T08:38:54;21.40;92.40
45849;DHT22;31567;54.600;9.842;2022-07-18T08:42:34;21.50;91.80
45849;DHT22;31567;54.600;9.842;2022-07-18T08:46:19;21.70;91.80
45849;DHT22;31567;54.600;9.842;2022-07-18T08:50:01;21.80;91.40
45849;DHT22;31567;54.600;9.842;2022-07-18T08:53:46;22.00;91.20
45849;DHT22;31567;54.600;9.842;2022-07-18T08:57:26;22.20;91.10
45849;DHT22;31567;54.600;9.842;2022-07-18T09:01:08;22.30;90.20
45849;DHT22;31567;54.600;9.842;2022-07-18T09:04:48;22.50;90.10
45849;DHT22;31567;54.600;9.842;2022-07-18T09:08:27;22.60;90.10
45849;DHT22;31567;54.600;9.842;2022-07-18T09:12:08;22.80;90.10
45849;DHT22;31567;54.600;9.842;2022-07-18T09:19:43;22.90;88.40
45849;DHT22;31567;54.600;9.842;2022-07-18T09:23:38;22.90;88.10
45849;DHT22;31567;54.600;9.842;2022-07-18T09:27:32;22.90;88.30
45849;DHT22;31567;54.600;9.842;2022-07-18T09:31:19;23.00;89.00
45849;DHT22;31567;54.600;9.842;2022-07-18T09:35:12;23.10;87.80
45849;DHT22;31567;54.600;9.842;2022-07-18T09:38:52;23.30;87.40
45849;DHT22;31567;54.600;9.842;2022-07-18T09:42:31;23.50;87.50
45849;DHT22;31567;54.600;9.842;2022-07-18T09:46:11;23.70;87.80
45849;DHT22;31567;54.600;9.842;2022-07-18T09:49:50;23.90;87.80
45849;DHT22;31567;54.600;9.842;2022-07-18T09:57:22;24.30;85.50
45849;DHT22;31567;54.600;9.842;2022-07-18T10:01:04;24.30;84.50
45849;DHT22;31567;54.600;9.842;2022-07-18T10:04:44;24.30;84.00
45849;DHT22;31567;54.600;9.842;2022-07-18T10:08:25;24.30;83.60
45849;DHT22;31567;54.600;9.842;2022-07-18T10:12:06;24.30;83.20
45849;DHT22;31567;54.600;9.842;2022-07-18T10:15:48;24.40;84.30
45849;DHT22;31567;54.600;9.842;2022-07-18T10:19:29;24.40;83.70
45849;DHT22;31567;54.600;9.842;2022-07-18T10:23:21;24.50;82.20
45849;DHT22;31567;54.600;9.842;2022-07-18T10:27:19;24.60;80.30
45849;DHT22;31567;54.600;9.842;2022-07-18T10:31:15;24.80;79.00
45849;DHT22;31567;54.600;9.842;2022-07-18T10:34:55;24.90;78.20
45849;DHT22;31567;54.600;9.842;2022-07-18T10:38:35;25.00;78.40
45849;DHT22;31567;54.600;9.842;2022-07-18T10:42:17;25.20;80.60
45849;DHT22;31567;54.600;9.842;2022-07-18T10:46:03;25.30;77.90
45849;DHT22;31567;54.600;9.842;2022-07-18T10:58:19;25.40;77.40
45849;DHT22;31567;54.600;9.842;2022-07-18T11:01:33;25.30;78.30
45849;DHT22;31567;54.600;9.842;2022-07-18T11:09:28;25.10;80.30
45849;DHT22;31567;54.600;9.842;2022-07-18T11:17:10;24.70;81.00
45849;DHT22;31567;54.600;9.842;2022-07-18T11:20:49;24.60;81.00
45849;DHT22;31567;54.600;9.842;2022-07-18T11:24:29;24.60;82.20
45849;DHT22;31567;54.600;9.842;2022-07-18T11:28:10;24.60;80.50
45849;DHT22;31567;54.600;9.842;2022-07-18T11:31:55;24.60;80.60
45849;DHT22;31567;54.600;9.842;2022-07-18T11:35:35;24.60;79.70
45849;DHT22;31567;54.600;9.842;2022-07-18T11:39:28;24.60;78.50
45849;DHT22;31567;54.600;9.842;2022-07-18T11:43:08;24.60;77.80
45849;DHT22;31567;54.600;9.842;2022-07-18T11:46:48;24.60;77.90
45849;DHT22;31567;54.600;9.842;2022-07-18T11:50:37;24.60;78.30
45849;DHT22;31567;54.600;9.842;2022-07-18T11:54:23;24.80;78.00
45849;DHT22;31567;54.600;9.842;2022-07-18T11:58:11;24.80;77.70
45849;DHT22;31567;54.600;9.842;2022-07-18T12:01:51;24.90;78.40
45849;DHT22;31567;54.600;9.842;2022-07-18T12:05:46;25.00;78.90
45849;DHT22;31567;54.600;9.842;2022-07-18T12:09:28;25.10;77.40
45849;DHT22;31567;54.600;9.842;2022-07-18T12:13:07;25.00;77.60
45849;DHT22;31567;54.600;9.842;2022-07-18T12:16:48;24.90;78.00
45849;DHT22;31567;54.600;9.842;2022-07-18T12:20:28;24.90;78.30
45849;DHT22;31567;54.600;9.842;2022-07-18T12:24:39;24.90;78.20
45849;DHT22;31567;54.600;9.842;2022-07-18T12:28:19;25.00;77.00
45849;DHT22;31567;54.600;9.842;2022-07-18T12:32:15;25.10;76.60
45849;DHT22;31567;54.600;9.842;2022-07-18T12:35:56;25.20;76.00
45849;DHT22;31567;54.600;9.842;2022-07-18T12:39:36;25.30;74.20
45849;DHT22;31567;54.600;9.842;2022-07-18T12:43:24;25.40;73.20
45849;DHT22;31567;54.600;9.842;2022-07-18T12:47:04;25.60;72.30
45849;DHT22;31567;54.600;9.842;2022-07-18T12:50:44;25.60;72.30
45849;DHT22;31567;54.600;9.842;2022-07-18T12:54:23;25.70;72.60
45849;DHT22;31567;54.600;9.842;2022-07-18T12:58:04;25.70;70.80
45849;DHT22;31567;54.600;9.842;2022-07-18T13:01:44;25.80;70.60
45849;DHT22;31567;54.600;9.842;2022-07-18T13:05:25;26.20;72.00
45849;DHT22;31567;54.600;9.842;2022-07-18T13:09:05;26.40;69.40
45849;DHT22;31567;54.600;9.842;2022-07-18T13:12:45;26.60;69.30
45849;DHT22;31567;54.600;9.842;2022-07-18T13:16:24;26.70;69.20
45849;DHT22;31567;54.600;9.842;2022-07-18T13:20:04;26.60;71.10
45849;DHT22;31567;54.600;9.842;2022-07-18T13:23:45;26.60;68.40
45849;DHT22;31567;54.600;9.842;2022-07-18T13:27:26;26.70;68.90
45849;DHT22;31567;54.600;9.842;2022-07-18T13:31:05;26.90;69.70
45849;DHT22;31567;54.600;9.842;2022-07-18T13:34:45;27.00;70.40
45849;DHT22;31567;54.600;9.842;2022-07-18T13:38:24;26.80;71.40
45849;DHT22;31567;54.600;9.842;2022-07-18T13:42:04;26.60;70.00
45849;DHT22;31567;54.600;9.842;2022-07-18T13:45:44;26.60;71.50
45849;DHT22;31567;54.600;9.842;2022-07-18T13:49:24;26.60;71.30
45849;DHT22;31567;54.600;9.842;2022-07-18T13:53:03;26.60;71.30
45849;DHT22;31567;54.600;9.842;2022-07-18T13:56:44;26.60;72.10
45849;DHT22;31567;54.600;9.842;2022-07-18T14:00:24;26.90;71.10
45849;DHT22;31567;54.600;9.842;2022-07-18T14:04:03;27.20;70.50
45849;DHT22;31567;54.600;9.842;2022-07-18T14:07:43;27.50;68.50
45849;DHT22;31567;54.600;9.842;2022-07-18T14:11:23;27.60;65.80
45849;DHT22;31567;54.600;9.842;2022-07-18T14:15:03;27.60;64.40
45849;DHT22;31567;54.600;9.842;2022-07-18T14:18:43;27.70;64.10
45849;DHT22;31567;54.600;9.842;2022-07-18T14:22:22;27.80;62.10
45849;DHT22;31567;54.600;9.842;2022-07-18T14:26:02;27.90;59.60
45849;DHT22;31567;54.600;9.842;2022-07-18T14:29:41;27.80;59.70
45849;DHT22;31567;54.600;9.842;2022-07-18T14:33:21;27.80;60.00
45849;DHT22;31567;54.600;9.842;2022-07-18T14:37:00;27.90;60.40
45849;DHT22;31567;54.600;9.842;2022-07-18T14:40:40;27.90;60.20
45849;DHT22;31567;54.600;9.842;2022-07-18T14:44:21;27.90;59.50
45849;DHT22;31567;54.600;9.842;2022-07-18T14:48:00;28.00;59.30
45849;DHT22;31567;54.600;9.842;2022-07-18T14:51:40;28.20;59.60
45849;DHT22;31567;54.600;9.842;2022-07-18T14:55:19;28.40;59.00
45849;DHT22;31567;54.600;9.842;2022-07-18T14:58:59;28.60;58.00
45849;DHT22;31567;54.600;9.842;2022-07-18T15:02:39;28.90;58.40
45849;DHT22;31567;54.600;9.842;2022-07-18T15:06:19;28.90;54.60
45849;DHT22;31567;54.600;9.842;2022-07-18T15:09:59;28.70;54.10
45849;DHT22;31567;54.600;9.842;2022-07-18T15:13:38;28.60;53.00
45849;DHT22;31567;54.600;9.842;2022-07-18T15:17:18;28.50;53.90
45849;DHT22;31567;54.600;9.842;2022-07-18T15:20:57;28.60;54.40
45849;DHT22;31567;54.600;9.842;2022-07-18T15:24:37;28.60;54.50
45849;DHT22;31567;54.600;9.842;2022-07-18T15:28:17;28.60;54.50
45849;DHT22;31567;54.600;9.842;2022-07-18T15:31:56;28.60;53.50
45849;DHT22;31567;54.600;9.842;2022-07-18T15:35:36;28.70;52.80
45849;DHT22;31567;54.600;9.842;2022-07-18T15:39:15;28.60;53.00
45849;DHT22;31567;54.600;9.842;2022-07-18T15:42:55;28.70;53.90
45849;DHT22;31567;54.600;9.842;2022-07-18T15:46:35;28.70;54.20
45849;DHT22;31567;54.600;9.842;2022-07-18T15:50:14;28.70;53.90
45849;DHT22;31567;54.600;9.842;2022-07-18T15:53:54;28.60;53.10
45849;DHT22;31567;54.600;9.842;2022-07-18T15:57:33;28.50;55.40
45849;DHT22;31567;54.600;9.842;2022-07-18T16:01:13;28.40;55.70
45849;DHT22;31567;54.600;9.842;2022-07-18T16:04:53;28.60;57.10
45849;DHT22;31567;54.600;9.842;2022-07-18T16:08:32;28.70;55.10
45849;DHT22;31567;54.600;9.842;2022-07-18T16:12:12;28.70;53.50
45849;DHT22;31567;54.600;9.842;2022-07-18T16:15:51;28.70;53.20
45849;DHT22;31567;54.600;9.842;2022-07-18T16:19:31;28.60;52.90
45849;DHT22;31567;54.600;9.842;2022-07-18T16:23:11;28.50;51.90
45849;DHT22;31567;54.600;9.842;2022-07-18T16:26:51;28.30;50.90
45849;DHT22;31567;54.600;9.842;2022-07-18T16:30:31;28.30;51.00
45849;DHT22;31567;54.600;9.842;2022-07-18T16:34:11;28.30;52.50
45849;DHT22;31567;54.600;9.842;2022-07-18T16:37:50;28.30;53.80
45849;DHT22;31567;54.600;9.842;2022-07-18T16:41:30;28.40;54.90
45849;DHT22;31567;54.600;9.842;2022-07-18T16:45:11;28.50;55.20
45849;DHT22;31567;54.600;9.842;2022-07-18T16:48:51;28.40;55.50
45849;DHT22;31567;54.600;9.842;2022-07-18T16:52:31;28.50;55.10
45849;DHT22;31567;54.600;9.842;2022-07-18T16:56:12;28.60;56.70
45849;DHT22;31567;54.600;9.842;2022-07-18T16:59:52;28.50;56.90
45849;DHT22;31567;54.600;9.842;2022-07-18T17:03:32;28.30;57.90
45849;DHT22;31567;54.600;9.842;2022-07-18T17:07:11;28.10;57.30
45849;DHT22;31567;54.600;9.842;2022-07-18T17:10:51;28.40;58.50
45849;DHT22;31567;54.600;9.842;2022-07-18T17:14:31;28.60;59.50
45849;DHT22;31567;54.600;9.842;2022-07-18T17:18:15;28.60;56.20
45849;DHT22;31567;54.600;9.842;2022-07-18T17:21:55;28.50;55.30
45849;DHT22;31567;54.600;9.842;2022-07-18T17:25:36;28.40;55.60
45849;DHT22;31567;54.600;9.842;2022-07-18T17:29:17;28.40;55.90
45849;DHT22;31567;54.600;9.842;2022-07-18T17:32:56;28.40;55.20
45849;DHT22;31567;54.600;9.842;2022-07-18T17:36:37;28.60;56.40
45849;DHT22;31567;54.600;9.842;2022-07-18T17:40:19;28.60;57.20
45849;DHT22;31567;54.600;9.842;2022-07-18T17:43:59;28.70;57.60
45849;DHT22;31567;54.600;9.842;2022-07-18T17:47:39;28.50;57.00
45849;DHT22;31567;54.600;9.842;2022-07-18T17:51:19;28.30;57.50
45849;DHT22;31567;54.600;9.842;2022-07-18T17:55:00;28.10;57.80
45849;DHT22;31567;54.600;9.842;2022-07-18T17:58:40;27.80;57.90
45849;DHT22;31567;54.600;9.842;2022-07-18T18:02:20;27.70;58.20
45849;DHT22;31567;54.600;9.842;2022-07-18T18:06:00;27.80;57.90
45849;DHT22;31567;54.600;9.842;2022-07-18T18:09:39;28.00;58.40
45849;DHT22;31567;54.600;9.842;2022-07-18T18:13:19;28.10;58.10
45849;DHT22;31567;54.600;9.842;2022-07-18T18:16:59;28.20;58.50
45849;DHT22;31567;54.600;9.842;2022-07-18T18:20:39;28.30;57.60
45849;DHT22;31567;54.600;9.842;2022-07-18T18:24:18;28.30;57.20
45849;DHT22;31567;54.600;9.842;2022-07-18T18:27:58;28.40;57.20
45849;DHT22;31567;54.600;9.842;2022-07-18T18:31:38;28.50;57.00
45849;DHT22;31567;54.600;9.842;2022-07-18T18:35:17;28.70;56.90
45849;DHT22;31567;54.600;9.842;2022-07-18T18:38:57;28.70;56.20
45849;DHT22;31567;54.600;9.842;2022-07-18T18:42:37;28.70;56.40
45849;DHT22;31567;54.600;9.842;2022-07-18T18:46:16;28.60;56.60
45849;DHT22;31567;54.600;9.842;2022-07-18T18:49:57;28.50;56.70
45849;DHT22;31567;54.600;9.842;2022-07-18T18:53:37;28.50;57.20
45849;DHT22;31567;54.600;9.842;2022-07-18T18:57:16;28.30;57.40
45849;DHT22;31567;54.600;9.842;2022-07-18T19:00:56;28.10;58.20
45849;DHT22;31567;54.600;9.842;2022-07-18T19:04:36;28.00;58.90
45849;DHT22;31567;54.600;9.842;2022-07-18T19:08:15;27.80;59.50
45849;DHT22;31567;54.600;9.842;2022-07-18T19:11:55;27.60;60.20
45849;DHT22;31567;54.600;9.842;2022-07-18T19:15:35;27.40;60.40
45849;DHT22;31567;54.600;9.842;2022-07-18T19:19:14;27.10;60.80
45849;DHT22;31567;54.600;9.842;2022-07-18T19:22:54;26.80;61.40
45849;DHT22;31567;54.600;9.842;2022-07-18T19:26:35;26.60;62.50
45849;DHT22;31567;54.600;9.842;2022-07-18T19:30:15;26.40;63.20
45849;DHT22;31567;54.600;9.842;2022-07-18T19:33:55;26.20;63.60
45849;DHT22;31567;54.600;9.842;2022-07-18T19:37:39;26.00;63.90
45849;DHT22;31567;54.600;9.842;2022-07-18T19:41:18;25.90;64.50
45849;DHT22;31567;54.600;9.842;2022-07-18T19:44:58;25.70;66.30
45849;DHT22;31567;54.600;9.842;2022-07-18T19:48:37;25.50;68.10
45849;DHT22;31567;54.600;9.842;2022-07-18T19:52:20;25.20;68.30
45849;DHT22;31567;54.600;9.842;2022-07-18T19:55:59;24.90;69.10
45849;DHT22;31567;54.600;9.842;2022-07-18T19:59:39;24.60;70.00
45849;DHT22;31567;54.600;9.842;2022-07-18T20:03:19;24.30;71.50
45849;DHT22;31567;54.600;9.842;2022-07-18T20:06:58;23.90;72.90
45849;DHT22;31567;54.600;9.842;2022-07-18T20:10:41;23.70;74.20
45849;DHT22;31567;54.600;9.842;2022-07-18T20:14:21;23.40;75.50
45849;DHT22;31567;54.600;9.842;2022-07-18T20:18:01;23.10;76.80
45849;DHT22;31567;54.600;9.842;2022-07-18T20:21:41;22.80;77.90
45849;DHT22;31567;54.600;9.842;2022-07-18T20:25:21;22.60;78.70
45849;DHT22;31567;54.600;9.842;2022-07-18T20:29:02;22.40;79.40
45849;DHT22;31567;54.600;9.842;2022-07-18T20:32:42;22.20;79.90
45849;DHT22;31567;54.600;9.842;2022-07-18T20:36:22;22.20;80.20
45849;DHT22;31567;54.600;9.842;2022-07-18T20:40:03;22.10;80.80
45849;DHT22;31567;54.600;9.842;2022-07-18T20:43:43;22.00;81.50
45849;DHT22;31567;54.600;9.842;2022-07-18T20:47:23;21.90;81.50
45849;DHT22;31567;54.600;9.842;2022-07-18T20:51:04;21.80;81.40
45849;DHT22;31567;54.600;9.842;2022-07-18T20:54:44;21.80;81.20
45849;DHT22;31567;54.600;9.842;2022-07-18T20:58:23;21.60;81.00
45849;DHT22;31567;54.600;9.842;2022-07-18T21:02:03;21.50;81.20
45849;DHT22;31567;54.600;9.842;2022-07-18T21:05:43;21.40;81.70
45849;DHT22;31567;54.600;9.842;2022-07-18T21:09:23;21.10;82.40
45849;DHT22;31567;54.600;9.842;2022-07-18T21:13:02;20.90;83.30
45849;DHT22;31567;54.600;9.842;2022-07-18T21:16:42;20.70;84.20
45849;DHT22;31567;54.600;9.842;2022-07-18T21:20:23;20.60;84.90
45849;DHT22;31567;54.600;9.842;2022-07-18T21:24:04;20.50;85.60
45849;DHT22;31567;54.600;9.842;2022-07-18T21:27:43;20.30;86.60
45849;DHT22;31567;54.600;9.842;2022-07-18T21:31:23;20.30;87.00
45849;DHT22;31567;54.600;9.842;2022-07-18T21:35:04;20.30;87.30
45849;DHT22;31567;54.600;9.842;2022-07-18T21:38:43;20.30;87.30
45849;DHT22;31567;54.600;9.842;2022-07-18T21:42:23;20.30;88.50
45849;DHT22;31567;54.600;9.842;2022-07-18T21:46:02;20.20;87.60
45849;DHT22;31567;54.600;9.842;2022-07-18T21:49:42;20.00;87.40
45849;DHT22;31567;54.600;9.842;2022-07-18T21:53:22;19.80;88.10
45849;DHT22;31567;54.600;9.842;2022-07-18T21:57:02;19.70;88.30
45849;DHT22;31567;54.600;9.842;2022-07-18T22:00:41;19.60;88.70
45849;DHT22;31567;54.600;9.842;2022-07-18T22:04:21;19.50;88.80
45849;DHT22;31567;54.600;9.842;2022-07-18T22:08:00;19.30;89.10
45849;DHT22;31567;54.600;9.842;2022-07-18T22:11:40;19.20;89.40
45849;DHT22;31567;54.600;9.842;2022-07-18T22:15:22;18.90;90.00
45849;DHT22;31567;54.600;9.842;2022-07-18T22:19:02;18.90;90.40
45849;DHT22;31567;54.600;9.842;2022-07-18T22:22:43;18.90;90.60
45849;DHT22;31567;54.600;9.842;2022-07-18T22:26:24;18.70;90.70
45849;DHT22;31567;54.600;9.842;2022-07-18T22:30:06;18.50;90.80
45849;DHT22;31567;54.600;9.842;2022-07-18T22:33:47;18.40;91.10
45849;DHT22;31567;54.600;9.842;2022-07-18T22:37:27;18.30;91.20
45849;DHT22;31567;54.600;9.842;2022-07-18T22:41:06;18.10;91.20
45849;DHT22;31567;54.600;9.842;2022-07-18T22:44:46;18.00;91.40
45849;DHT22;31567;54.600;9.842;2022-07-18T22:48:26;17.90;91.80
45849;DHT22;31567;54.600;9.842;2022-07-18T22:52:07;17.80;92.00
45849;DHT22;31567;54.600;9.842;2022-07-18T22:55:47;17.80;92.10
45849;DHT22;31567;54.600;9.842;2022-07-18T22:59:26;17.70;92.20
45849;DHT22;31567;54.600;9.842;2022-07-18T23:03:06;17.60;92.60
45849;DHT22;31567;54.600;9.842;2022-07-18T23:06:46;17.60;92.70
45849;DHT22;31567;54.600;9.842;2022-07-18T23:10:28;17.50;92.60
45849;DHT22;31567;54.600;9.842;2022-07-18T23:14:08;17.40;92.60
45849;DHT22;31567;54.600;9.842;2022-07-18T23:17:48;17.20;92.70
45849;DHT22;31567;54.600;9.842;2022-07-18T23:21:27;17.20;92.90
45849;DHT22;31567;54.600;9.842;2022-07-18T23:25:09;17.10;93.40
45849;DHT22;31567;54.600;9.842;2022-07-18T23:28:49;17.10;93.60
45849;DHT22;31567;54.600;9.842;2022-07-18T23:32:28;17.10;93.80
45849;DHT22;31567;54.600;9.842;2022-07-18T23:36:08;17.00;93.70